Time;durP1;ratioP1;P1;durP2;ratioP2;P2;SDS_P1;SDS_P2;PMS_P1;PMS_P2;Temp;Humidity;BMP_temperature;BMP_pressure;BME280_temperature;BME280_humidity;BME280_pressure;Samples;Min_cycle;Max_cycle;Signal;HPM_P1;HPM_P2
2022/11/06 00:01:41;;;;;;;13.80;6.67;;;10.30;99.90;;;;;;5025677;28;20292;-73
2022/11/06 00:04:08;;;;;;;12.60;7.27;;;10.30;99.90;;;;;;5021984;28;20588;-72
2022/11/06 00:06:48;;;;;;;11.73;6.87;;;10.30;99.90;;;;;;5028026;28;20731;-73
2022/11/06 00:09:17;;;;;;;13.57;7.47;;;10.30;99.90;;;;;;5023465;28;20651;-73
2022/11/06 00:11:45;;;;;;;16.63;8.17;;;10.20;99.90;;;;;;5024001;28;20210;-73
2022/11/06 00:14:12;;;;;;;12.47;7.47;;;10.30;99.90;;;;;;5019762;28;20302;-73
2022/11/06 00:16:41;;;;;;;11.40;7.00;;;10.30;99.90;;;;;;5008453;28;20240;-73
2022/11/06 00:19:09;;;;;;;13.13;7.67;;;10.30;99.90;;;;;;5022623;28;20233;-74
2022/11/06 00:21:36;;;;;;;11.97;6.77;;;10.30;99.90;;;;;;5013021;28;20300;-74
2022/11/06 00:24:05;;;;;;;14.00;6.53;;;10.40;99.90;;;;;;5027109;28;20214;-72
2022/11/06 00:26:33;;;;;;;12.33;7.07;;;10.40;99.90;;;;;;5011081;28;20206;-74
2022/11/06 00:29:00;;;;;;;11.53;7.13;;;10.30;99.90;;;;;;5020822;28;20230;-74
2022/11/06 00:31:30;;;;;;;14.23;6.73;;;10.30;99.90;;;;;;5025537;28;20635;-74
2022/11/06 00:33:58;;;;;;;12.87;7.17;;;10.20;99.90;;;;;;5024657;28;20603;-73
2022/11/06 00:36:29;;;;;;;10.97;7.37;;;10.20;99.90;;;;;;5020455;28;20684;-74
2022/11/06 00:38:57;;;;;;;11.60;6.97;;;10.20;99.90;;;;;;5024832;28;20292;-74
2022/11/06 00:41:24;;;;;;;11.33;6.53;;;10.20;99.90;;;;;;5024258;28;20220;-73
2022/11/06 00:43:57;;;;;;;14.43;7.90;;;10.20;99.90;;;;;;5030258;28;20259;-73
2022/11/06 00:46:24;;;;;;;14.40;7.33;;;10.20;99.90;;;;;;5009101;28;20202;-73
2022/11/06 00:48:52;;;;;;;10.77;7.73;;;10.10;99.90;;;;;;5015444;28;20206;-74
2022/11/06 00:51:23;;;;;;;10.77;6.63;;;10.20;99.90;;;;;;5022991;28;20234;-73
2022/11/06 00:54:03;;;;;;;10.60;7.03;;;10.20;99.90;;;;;;5030644;28;20291;-73
2022/11/06 00:56:31;;;;;;;11.90;7.47;;;10.20;99.90;;;;;;5023451;28;20677;-74
2022/11/06 00:59:03;;;;;;;12.97;7.03;;;10.20;99.90;;;;;;5028384;28;20664;-74
2022/11/06 01:01:34;;;;;;;13.30;7.20;;;10.20;99.90;;;;;;5023924;28;20209;-75
2022/11/06 01:04:13;;;;;;;15.47;7.87;;;10.20;99.90;;;;;;5030337;28;20226;-74
2022/11/06 01:06:43;;;;;;;14.30;7.50;;;10.20;99.90;;;;;;5026512;28;20278;-74
2022/11/06 01:09:13;;;;;;;12.17;6.47;;;10.20;99.90;;;;;;5025037;28;20327;-74
2022/11/06 01:11:44;;;;;;;10.50;6.33;;;10.20;99.90;;;;;;5032658;28;20205;-74
2022/11/06 01:14:31;;;;;;;11.47;6.87;;;10.20;99.90;;;;;;5031792;28;20358;-74
2022/11/06 01:16:58;;;;;;;15.53;7.07;;;10.20;99.90;;;;;;5019544;28;20571;-73
2022/11/06 01:19:27;;;;;;;11.73;6.57;;;10.30;99.90;;;;;;5028440;28;20658;-75
2022/11/06 01:21:54;;;;;;;14.23;6.90;;;10.30;99.90;;;;;;5022336;28;20706;-73
2022/11/06 01:24:24;;;;;;;14.40;6.80;;;10.30;99.90;;;;;;5030616;28;20229;-74
2022/11/06 01:26:52;;;;;;;10.97;6.63;;;10.30;99.90;;;;;;5023179;28;20252;-74
2022/11/06 01:29:39;;;;;;;13.83;6.50;;;10.30;99.90;;;;;;5018613;28;20573;-74
2022/11/06 01:32:06;;;;;;;16.57;6.70;;;10.40;99.90;;;;;;5030011;28;20379;-73
2022/11/06 01:34:32;;;;;;;11.10;6.00;;;10.40;99.90;;;;;;5028126;28;20206;-73
2022/11/06 01:36:59;;;;;;;10.73;5.40;;;10.40;99.90;;;;;;5022055;28;20287;-73
2022/11/06 01:39:26;;;;;;;12.17;6.87;;;10.50;99.90;;;;;;5009196;28;20214;-73
2022/11/06 01:41:53;;;;;;;9.90;6.20;;;10.50;99.90;;;;;;5022973;28;21003;-76
2022/11/06 01:44:55;;;;;;;11.77;6.30;;;10.50;99.90;;;;;;5024482;28;20666;-73
2022/11/06 01:47:21;;;;;;;11.03;5.67;;;10.40;99.90;;;;;;5026197;28;20236;-74
2022/11/06 01:49:52;;;;;;;10.40;6.10;;;10.40;99.90;;;;;;5024486;28;20292;-74
2022/11/06 01:52:20;;;;;;;10.93;5.57;;;10.40;99.90;;;;;;5024094;28;20218;-73
2022/11/06 01:54:52;;;;;;;13.63;5.73;;;10.40;99.90;;;;;;5025740;28;20215;-74
2022/11/06 01:57:19;;;;;;;8.83;5.77;;;10.40;99.90;;;;;;5026280;28;20363;-73
2022/11/06 01:59:46;;;;;;;12.83;6.03;;;10.40;99.90;;;;;;5023441;28;20206;-74
2022/11/06 02:02:15;;;;;;;11.93;5.77;;;10.40;99.90;;;;;;5005760;28;20671;-74
2022/11/06 02:04:44;;;;;;;12.50;6.10;;;10.40;99.90;;;;;;5024070;28;20206;-74
2022/11/06 02:07:11;;;;;;;10.77;5.97;;;10.40;99.90;;;;;;5023038;28;20222;-74
2022/11/06 02:09:39;;;;;;;11.30;5.13;;;10.40;99.90;;;;;;5012310;28;20624;-74
2022/11/06 02:12:17;;;;;;;8.97;5.47;;;10.40;99.90;;;;;;5027381;28;20210;-74
2022/11/06 02:15:16;;;;;;;11.90;4.90;;;10.50;99.90;;;;;;5031567;28;20248;-73
2022/11/06 02:18:20;;;;;;;8.27;4.70;;;10.50;99.90;;;;;;5026128;28;20781;-74
2022/11/06 02:21:34;;;;;;;8.10;5.00;;;10.40;99.90;;;;;;5027098;28;20205;-73
2022/11/06 02:24:07;;;;;;;9.93;4.77;;;10.40;99.90;;;;;;4981549;28;20638;-73
2022/11/06 02:27:11;;;;;;;10.60;5.13;;;10.50;99.90;;;;;;5020950;28;20634;-73
2022/11/06 02:29:40;;;;;;;8.77;4.70;;;10.50;99.90;;;;;;5026745;28;20567;-73
2022/11/06 02:32:14;;;;;;;13.00;5.63;;;10.40;99.90;;;;;;5027886;28;20567;-74
2022/11/06 02:34:43;;;;;;;12.20;4.63;;;10.40;99.90;;;;;;5023758;28;20381;-74
2022/11/06 02:37:15;;;;;;;7.60;4.60;;;10.40;99.90;;;;;;5027287;28;20263;-74
2022/11/06 02:39:45;;;;;;;8.27;4.87;;;10.40;99.90;;;;;;5023464;28;20633;-73
2022/11/06 02:42:16;;;;;;;17.73;5.50;;;10.50;99.90;;;;;;5025461;28;20210;-73
2022/11/06 02:44:45;;;;;;;8.73;4.47;;;10.40;99.90;;;;;;5028310;28;20296;-74
2022/11/06 02:47:15;;;;;;;9.17;4.47;;;10.40;99.90;;;;;;5010047;28;20316;-74
2022/11/06 02:49:53;;;;;;;10.37;4.57;;;10.40;99.90;;;;;;5021647;28;20234;-75
2022/11/06 02:52:25;;;;;;;9.97;4.40;;;10.40;99.90;;;;;;5026535;28;20255;-73
2022/11/06 02:55:01;;;;;;;10.37;4.13;;;10.40;99.90;;;;;;5028315;28;20202;-74
2022/11/06 02:57:31;;;;;;;13.17;4.73;;;10.40;99.90;;;;;;5024317;28;20244;-74
2022/11/06 03:00:11;;;;;;;12.37;4.43;;;10.40;99.90;;;;;;5022585;28;20212;-74
2022/11/06 03:02:50;;;;;;;10.73;4.07;;;10.30;99.90;;;;;;5026932;28;20324;-74
2022/11/06 03:05:51;;;;;;;9.30;4.13;;;10.30;99.90;;;;;;5029915;28;20189;-74
2022/11/06 03:08:26;;;;;;;9.97;4.40;;;10.30;99.90;;;;;;5023216;28;20224;-73
2022/11/06 03:11:17;;;;;;;9.07;4.17;;;10.30;99.90;;;;;;5019993;28;20205;-74
2022/11/06 03:13:53;;;;;;;10.73;4.53;;;10.30;99.90;;;;;;5025056;28;20246;-75
2022/11/06 03:16:39;;;;;;;9.00;4.10;;;10.30;99.90;;;;;;5023831;28;20227;-73
2022/11/06 03:19:27;;;;;;;11.83;4.60;;;10.30;99.90;;;;;;5020168;28;20331;-74
2022/11/06 03:22:12;;;;;;;9.77;4.07;;;10.20;99.90;;;;;;5004191;28;20300;-73
2022/11/06 03:24:47;;;;;;;9.27;4.43;;;10.30;99.90;;;;;;5030524;28;20660;-75
2022/11/06 03:27:19;;;;;;;9.33;3.60;;;10.20;99.90;;;;;;5021219;28;20217;-76
2022/11/06 03:30:07;;;;;;;8.73;4.10;;;10.30;99.90;;;;;;5025491;28;20244;-73
2022/11/06 03:32:46;;;;;;;10.70;4.33;;;10.30;99.90;;;;;;5024719;28;20775;-72
2022/11/06 03:35:27;;;;;;;9.17;3.90;;;10.30;99.90;;;;;;5023413;28;20213;-74
2022/11/06 03:37:57;;;;;;;10.67;4.13;;;10.30;99.90;;;;;;5022848;28;20321;-74
2022/11/06 03:40:28;;;;;;;11.17;4.07;;;10.40;99.90;;;;;;5007231;28;20292;-73
2022/11/06 03:42:59;;;;;;;7.53;4.40;;;10.40;99.90;;;;;;5023264;28;20229;-74
2022/11/06 03:45:28;;;;;;;11.27;4.20;;;10.40;99.90;;;;;;5022735;28;20209;-75
2022/11/06 03:48:10;;;;;;;12.17;3.90;;;10.50;99.90;;;;;;5009843;28;20249;-73
2022/11/06 03:50:50;;;;;;;14.23;3.77;;;10.50;99.90;;;;;;4992381;28;20209;-73
2022/11/06 03:53:25;;;;;;;8.57;3.43;;;10.50;99.90;;;;;;5022030;28;20321;-74
2022/11/06 03:56:03;;;;;;;8.33;3.67;;;10.50;99.90;;;;;;5019594;28;20292;-74
2022/11/06 03:58:36;;;;;;;9.23;3.60;;;10.50;99.90;;;;;;5013544;28;20701;-74
2022/11/06 04:01:06;;;;;;;7.77;3.73;;;10.50;99.90;;;;;;5023118;28;20212;-75
2022/11/06 04:03:35;;;;;;;11.13;3.70;;;10.50;99.90;;;;;;5029581;28;20686;-74
2022/11/06 04:06:12;;;;;;;10.20;3.77;;;10.60;99.90;;;;;;5022578;28;20245;-73
2022/11/06 04:14:15;;;;;;;8.03;3.37;;;10.60;99.90;;;;;;5022739;28;20293;-74
2022/11/06 04:16:46;;;;;;;8.93;3.67;;;10.60;99.90;;;;;;5009858;28;20224;-73
2022/11/06 04:19:23;;;;;;;9.17;3.30;;;10.60;99.90;;;;;;5027075;28;20225;-74
2022/11/06 04:22:10;;;;;;;7.80;3.43;;;10.50;99.90;;;;;;5021587;28;20301;-73
2022/11/06 04:28:25;;;;;;;10.13;3.50;;;10.60;99.90;;;;;;5027259;28;20951;-74
2022/11/06 04:31:01;;;;;;;6.03;3.63;;;10.60;99.90;;;;;;5031489;28;20316;-73
2022/11/06 04:33:33;;;;;;;9.07;4.07;;;10.50;99.90;;;;;;5031085;28;20327;-74
2022/11/06 04:36:32;;;;;;;7.53;3.20;;;10.50;99.90;;;;;;5010795;28;20252;-74
2022/11/06 04:39:09;;;;;;;10.83;3.67;;;10.50;99.90;;;;;;5027231;28;21259;-73
2022/11/06 04:41:43;;;;;;;12.57;4.03;;;10.50;99.90;;;;;;5009459;28;20216;-74
2022/11/06 04:44:14;;;;;;;16.27;3.30;;;10.50;99.90;;;;;;5031485;28;20205;-73
2022/11/06 04:46:47;;;;;;;9.73;3.37;;;10.50;99.90;;;;;;5012451;28;20197;-74
2022/11/06 04:49:15;;;;;;;6.60;3.23;;;10.50;99.90;;;;;;5020876;28;20229;-73
2022/11/06 04:51:44;;;;;;;8.23;3.50;;;10.50;99.90;;;;;;5029986;28;20712;-74
2022/11/06 04:54:13;;;;;;;6.53;3.80;;;10.60;99.90;;;;;;5025439;28;20241;-74
2022/11/06 04:56:39;;;;;;;7.23;3.47;;;10.60;99.90;;;;;;5029571;28;20317;-74
2022/11/06 04:59:14;;;;;;;6.67;3.20;;;10.60;99.90;;;;;;5007388;28;20292;-74
2022/11/06 05:01:41;;;;;;;9.03;3.63;;;10.60;99.90;;;;;;5031547;28;20201;-75
2022/11/06 05:04:09;;;;;;;9.63;3.37;;;10.60;99.90;;;;;;5013039;28;20284;-75
2022/11/06 05:06:36;;;;;;;8.83;3.00;;;10.60;99.90;;;;;;5029374;28;20223;-74
2022/11/06 05:09:03;;;;;;;8.67;3.23;;;10.70;99.90;;;;;;5022346;28;20222;-74
2022/11/06 05:11:30;;;;;;;8.43;3.67;;;10.70;99.90;;;;;;5031776;28;20229;-73
2022/11/06 05:13:56;;;;;;;10.70;3.40;;;10.70;99.90;;;;;;5010027;28;20202;-74
2022/11/06 05:16:23;;;;;;;8.57;3.37;;;10.70;99.90;;;;;;5030199;28;20213;-73
2022/11/06 05:18:50;;;;;;;9.67;3.30;;;10.70;99.90;;;;;;5024983;28;20322;-73
2022/11/06 05:24:02;;;;;;;10.00;3.53;;;10.80;99.90;;;;;;5026309;28;20718;-74
2022/11/06 05:26:29;;;;;;;6.23;3.33;;;10.90;99.90;;;;;;5029937;28;20210;-73
2022/11/06 05:28:56;;;;;;;7.20;2.90;;;10.80;99.90;;;;;;5027121;28;20228;-74
2022/11/06 05:31:24;;;;;;;7.97;3.27;;;10.90;99.90;;;;;;5029586;28;20323;-74
2022/11/06 05:33:51;;;;;;;6.20;2.90;;;10.90;99.90;;;;;;5025455;28;20213;-74
2022/11/06 05:36:18;;;;;;;9.97;2.90;;;10.90;99.90;;;;;;5012157;28;20215;-75
2022/11/06 05:38:45;;;;;;;4.27;2.67;;;10.80;99.90;;;;;;5028308;28;20256;-75
2022/11/06 05:41:11;;;;;;;9.73;3.50;;;10.90;99.90;;;;;;5024970;28;20336;-73
2022/11/06 05:43:38;;;;;;;7.80;3.00;;;10.90;99.90;;;;;;5025377;28;20210;-73
2022/11/06 05:46:05;;;;;;;8.87;2.73;;;10.90;99.90;;;;;;5028580;28;20324;-73
2022/11/06 05:48:49;;;;;;;8.80;3.10;;;10.90;99.90;;;;;;5029724;28;20400;-73
2022/11/06 05:51:16;;;;;;;9.43;3.40;;;10.90;99.90;;;;;;5023846;28;20215;-73
2022/11/06 05:53:43;;;;;;;7.33;3.20;;;11.00;99.90;;;;;;5024490;28;20759;-74
2022/11/06 05:56:10;;;;;;;7.87;3.10;;;11.00;99.90;;;;;;5020564;28;20201;-73
2022/11/06 05:58:37;;;;;;;6.63;3.00;;;11.00;99.90;;;;;;5023046;28;20245;-72
2022/11/06 06:01:04;;;;;;;9.17;3.00;;;11.00;99.90;;;;;;5007102;28;20205;-73
2022/11/06 06:03:31;;;;;;;12.67;3.20;;;11.00;99.90;;;;;;5024790;28;20209;-73
2022/11/06 06:05:58;;;;;;;6.03;3.10;;;11.10;99.90;;;;;;5021964;28;20226;-74
2022/11/06 06:08:24;;;;;;;6.87;3.30;;;11.10;99.90;;;;;;5020680;28;20213;-73
2022/11/06 06:10:51;;;;;;;12.23;3.13;;;11.10;99.90;;;;;;5009490;28;20265;-73
2022/11/06 06:13:20;;;;;;;5.93;3.07;;;11.10;99.90;;;;;;5022422;28;20692;-73
2022/11/06 06:15:47;;;;;;;7.03;2.73;;;11.10;99.90;;;;;;5024633;28;20216;-73
2022/11/06 06:18:14;;;;;;;6.47;2.50;;;11.10;99.90;;;;;;5023377;28;20340;-73
2022/11/06 06:20:41;;;;;;;6.00;2.47;;;11.10;99.90;;;;;;5021142;28;20217;-74
2022/11/06 06:23:09;;;;;;;8.70;3.13;;;11.10;99.90;;;;;;5024610;28;20209;-73
2022/11/06 06:25:35;;;;;;;7.87;3.00;;;11.10;99.90;;;;;;5016834;28;20241;-74
2022/11/06 06:28:02;;;;;;;7.33;3.10;;;11.10;99.90;;;;;;5019258;28;20210;-74
2022/11/06 06:30:29;;;;;;;10.87;3.47;;;11.10;99.90;;;;;;5013370;28;20194;-73
2022/11/06 06:32:56;;;;;;;7.40;3.10;;;11.00;99.90;;;;;;5022348;28;20245;-73
2022/11/06 06:35:22;;;;;;;6.40;3.03;;;11.00;99.90;;;;;;5020768;28;20296;-75
2022/11/06 06:37:51;;;;;;;7.20;3.03;;;11.00;99.90;;;;;;5009897;28;20229;-74
2022/11/06 06:40:18;;;;;;;11.20;3.70;;;11.00;99.90;;;;;;5024806;28;20240;-75
2022/11/06 06:42:45;;;;;;;11.77;3.83;;;11.00;99.90;;;;;;5023011;28;20296;-74
2022/11/06 06:45:12;;;;;;;8.97;3.33;;;11.00;99.90;;;;;;5023568;28;20206;-73
2022/11/06 06:47:39;;;;;;;10.73;3.03;;;11.00;99.90;;;;;;5022399;28;20297;-73
2022/11/06 06:50:06;;;;;;;9.63;3.20;;;10.90;99.90;;;;;;5024108;28;20214;-73
2022/11/06 06:52:33;;;;;;;10.40;3.13;;;10.90;99.90;;;;;;5003490;28;20309;-73
2022/11/06 06:55:00;;;;;;;7.30;3.20;;;10.90;99.90;;;;;;5025553;28;20301;-74
2022/11/06 06:57:26;;;;;;;8.83;3.63;;;11.00;99.90;;;;;;5022640;28;20240;-74
2022/11/06 06:59:53;;;;;;;6.73;3.20;;;10.90;99.90;;;;;;5025307;28;20488;-73
2022/11/06 07:02:20;;;;;;;9.10;3.73;;;10.90;99.90;;;;;;5022428;28;20216;-74
2022/11/06 07:04:47;;;;;;;6.90;3.00;;;10.90;99.90;;;;;;5021554;28;20220;-74
2022/11/06 07:07:13;;;;;;;6.40;2.93;;;10.80;99.90;;;;;;5028298;28;21937;-73
2022/11/06 07:09:40;;;;;;;9.03;3.20;;;10.80;99.90;;;;;;5022487;28;20564;-75
2022/11/06 07:12:07;;;;;;;6.30;3.10;;;10.80;99.90;;;;;;5026519;28;20602;-74
2022/11/06 07:14:33;;;;;;;7.77;3.43;;;10.80;99.90;;;;;;5000287;28;20294;-74
2022/11/06 07:17:00;;;;;;;8.93;2.93;;;10.80;99.90;;;;;;5019367;28;20214;-74
2022/11/06 07:19:27;;;;;;;6.27;3.00;;;10.90;99.90;;;;;;5002453;28;20353;-73
2022/11/06 07:21:54;;;;;;;10.40;3.30;;;10.90;99.90;;;;;;5020308;28;20690;-74
2022/11/06 07:24:20;;;;;;;7.57;3.07;;;10.90;99.90;;;;;;5021864;28;20221;-74
2022/11/06 07:26:47;;;;;;;6.30;3.43;;;10.90;99.90;;;;;;5021672;28;20662;-73
2022/11/06 07:29:14;;;;;;;3.37;2.53;;;11.00;99.90;;;;;;5024549;28;20193;-74
2022/11/06 07:31:41;;;;;;;7.23;2.90;;;11.00;99.90;;;;;;5026806;28;20305;-73
2022/11/06 07:34:08;;;;;;;6.17;2.83;;;11.00;99.90;;;;;;5020261;28;20233;-73
2022/11/06 07:36:35;;;;;;;8.50;3.00;;;11.10;99.90;;;;;;5026641;28;20383;-74
2022/11/06 07:39:02;;;;;;;8.57;3.10;;;11.10;99.90;;;;;;5023408;28;20280;-74
2022/11/06 07:41:29;;;;;;;4.80;2.90;;;11.20;99.90;;;;;;5019465;28;20213;-73
2022/11/06 07:43:56;;;;;;;6.90;2.60;;;11.20;99.90;;;;;;5022715;28;20213;-75
2022/11/06 07:46:22;;;;;;;8.17;2.97;;;11.20;99.90;;;;;;5023914;28;20379;-75
2022/11/06 07:48:49;;;;;;;5.77;3.17;;;11.20;99.90;;;;;;5022371;28;20668;-73
2022/11/06 07:51:16;;;;;;;16.80;4.23;;;11.30;99.90;;;;;;5013365;28;20233;-74
2022/11/06 07:53:42;;;;;;;7.53;2.80;;;11.40;99.90;;;;;;5024463;28;20213;-72
2022/11/06 07:56:10;;;;;;;6.50;3.07;;;11.40;99.90;;;;;;5023387;28;20232;-75
2022/11/06 07:58:37;;;;;;;8.00;2.67;;;11.50;99.90;;;;;;5010139;28;20236;-74
2022/11/06 08:01:04;;;;;;;5.73;2.63;;;11.60;99.90;;;;;;5026372;28;20210;-74
2022/11/06 08:03:33;;;;;;;7.83;3.80;;;11.70;99.90;;;;;;5026639;28;20290;-75
2022/11/06 08:06:03;;;;;;;3.83;2.27;;;11.70;99.90;;;;;;5024510;28;20225;-75
2022/11/06 08:08:30;;;;;;;8.07;2.50;;;11.70;99.90;;;;;;5028466;28;20224;-74
2022/11/06 08:11:08;;;;;;;8.60;3.03;;;11.70;99.90;;;;;;5029737;28;20599;-74
2022/11/06 08:13:35;;;;;;;7.70;2.80;;;11.80;99.90;;;;;;5029647;28;20209;-73
2022/11/06 08:16:04;;;;;;;7.53;2.73;;;11.90;99.90;;;;;;5024649;28;20646;-74
2022/11/06 08:18:31;;;;;;;5.20;2.60;;;11.90;99.90;;;;;;5023497;28;20678;-74
2022/11/06 08:20:58;;;;;;;5.83;2.40;;;11.90;99.90;;;;;;5025222;28;20583;-74
2022/11/06 08:23:25;;;;;;;4.57;2.50;;;12.00;99.90;;;;;;5016495;28;20279;-73
2022/11/06 08:25:58;;;;;;;7.83;2.50;;;12.00;99.90;;;;;;5027286;28;20308;-74
2022/11/06 08:28:25;;;;;;;7.30;2.70;;;12.10;99.90;;;;;;5011956;28;20234;-74
2022/11/06 08:30:52;;;;;;;5.33;2.70;;;12.10;99.90;;;;;;5031189;28;20205;-73
2022/11/06 08:33:23;;;;;;;6.87;2.23;;;12.10;99.90;;;;;;5021061;28;20214;-74
2022/11/06 08:35:50;;;;;;;3.27;2.50;;;12.10;99.90;;;;;;5021773;28;20333;-74
2022/11/06 08:38:18;;;;;;;6.17;2.37;;;12.10;99.90;;;;;;5022922;28;20228;-74
2022/11/06 08:40:44;;;;;;;7.73;2.63;;;12.10;99.90;;;;;;5011650;28;20705;-76
2022/11/06 08:43:19;;;;;;;7.00;2.50;;;12.20;99.90;;;;;;5004060;28;20206;-75
2022/11/06 08:45:45;;;;;;;7.07;2.70;;;12.20;99.90;;;;;;5025280;28;20289;-73
2022/11/06 08:48:12;;;;;;;5.70;2.10;;;12.20;99.90;;;;;;5008616;28;20288;-74
2022/11/06 08:50:40;;;;;;;7.80;2.30;;;12.30;99.90;;;;;;5028843;28;20195;-74
2022/11/06 08:53:07;;;;;;;6.60;1.93;;;12.30;99.90;;;;;;5026206;28;20595;-73
2022/11/06 08:55:36;;;;;;;4.67;2.33;;;12.30;99.90;;;;;;5022462;28;20604;-74
2022/11/06 08:58:04;;;;;;;6.40;2.23;;;12.40;99.90;;;;;;5025943;28;20688;-75
2022/11/06 09:00:32;;;;;;;6.93;2.50;;;12.50;99.90;;;;;;5021438;28;20330;-74
2022/11/06 09:03:01;;;;;;;6.63;2.30;;;12.50;99.90;;;;;;5020381;28;20628;-75
2022/11/06 09:05:28;;;;;;;5.13;2.33;;;12.60;99.90;;;;;;5005627;28;20214;-75
2022/11/06 09:07:56;;;;;;;6.13;2.13;;;12.70;99.90;;;;;;5020799;28;20267;-74
2022/11/06 09:10:24;;;;;;;6.07;2.53;;;12.70;99.90;;;;;;5021646;28;20285;-75
2022/11/06 09:12:51;;;;;;;6.57;1.80;;;12.70;99.90;;;;;;5010036;28;20206;-74
2022/11/06 09:15:21;;;;;;;6.33;2.00;;;12.80;99.90;;;;;;5021446;28;20301;-75
2022/11/06 09:17:50;;;;;;;6.07;2.17;;;12.80;99.90;;;;;;5019327;28;20234;-74
2022/11/06 09:20:18;;;;;;;5.37;2.23;;;12.90;99.90;;;;;;5021703;28;20247;-74
2022/11/06 09:22:46;;;;;;;6.50;1.87;;;12.80;99.90;;;;;;5019929;28;20219;-75
2022/11/06 09:25:13;;;;;;;6.63;2.00;;;12.80;99.90;;;;;;5021681;28;20212;-75
2022/11/06 09:27:41;;;;;;;6.43;2.40;;;12.80;99.90;;;;;;5021205;28;20210;-75
2022/11/06 09:30:09;;;;;;;6.90;1.90;;;12.80;99.90;;;;;;5009694;28;20625;-74
2022/11/06 09:32:37;;;;;;;6.00;1.87;;;12.80;99.90;;;;;;5024617;28;20210;-75
2022/11/06 09:35:04;;;;;;;7.70;3.00;;;12.90;99.90;;;;;;5021643;28;20228;-76
2022/11/06 09:37:31;;;;;;;4.53;1.70;;;13.00;99.90;;;;;;5024765;28;20589;-75
2022/11/06 09:40:00;;;;;;;7.27;2.30;;;13.00;99.90;;;;;;5003787;28;20320;-76
2022/11/06 09:42:53;;;;;;;4.87;2.50;;;13.10;99.90;;;;;;5024020;28;20289;-76
2022/11/06 09:45:27;;;;;;;6.53;3.00;;;13.10;99.90;;;;;;5025213;28;20290;-75
2022/11/06 09:48:02;;;;;;;4.80;2.23;;;13.20;99.90;;;;;;5021747;28;20210;-75
2022/11/06 09:50:34;;;;;;;3.53;1.90;;;13.20;99.90;;;;;;5023930;28;20290;-75
2022/11/06 09:53:06;;;;;;;6.13;2.20;;;13.30;99.90;;;;;;5023267;28;20334;-76
2022/11/06 09:55:41;;;;;;;5.20;2.20;;;13.30;99.90;;;;;;5020706;28;20585;-74
2022/11/06 09:58:19;;;;;;;6.33;2.13;;;13.30;99.90;;;;;;5020322;28;20714;-76
2022/11/06 10:00:47;;;;;;;3.60;1.90;;;13.30;99.90;;;;;;5019936;28;20678;-74
2022/11/06 10:03:20;;;;;;;5.57;2.50;;;13.30;99.90;;;;;;5022797;28;20202;-74
2022/11/06 10:05:47;;;;;;;4.13;2.50;;;13.30;99.90;;;;;;5004824;28;20219;-76
2022/11/06 10:08:19;;;;;;;4.73;2.20;;;13.30;99.90;;;;;;5022347;28;20214;-75
2022/11/06 10:11:25;;;;;;;4.67;2.03;;;13.20;99.90;;;;;;5023882;28;20607;-75
2022/11/06 10:13:54;;;;;;;8.87;2.07;;;13.20;99.90;;;;;;5018442;28;20292;-74
2022/11/06 10:16:43;;;;;;;5.93;1.90;;;13.20;99.90;;;;;;5024022;28;20241;-76
2022/11/06 10:19:14;;;;;;;5.50;2.10;;;13.20;99.90;;;;;;5018972;28;20225;-76
2022/11/06 10:22:06;;;;;;;6.80;2.23;;;13.30;99.90;;;;;;5023886;28;20344;-74
2022/11/06 10:24:45;;;;;;;5.63;2.20;;;13.30;99.90;;;;;;5019151;28;20732;-74
2022/11/06 10:27:26;;;;;;;6.03;2.57;;;13.40;99.90;;;;;;5005240;28;20217;-74
2022/11/06 10:30:03;;;;;;;3.50;2.27;;;13.50;99.90;;;;;;5012092;28;20520;-74
2022/11/06 10:33:20;;;;;;;5.13;2.00;;;13.50;99.90;;;;;;5022850;28;20201;-75
2022/11/06 10:36:16;;;;;;;5.60;1.93;;;13.60;99.90;;;;;;4958344;28;20205;-75
2022/11/06 10:38:47;;;;;;;3.53;2.10;;;13.60;99.90;;;;;;4960448;28;20302;-76
2022/11/06 10:41:23;;;;;;;6.57;2.97;;;13.70;99.90;;;;;;5000765;28;20233;-74
2022/11/06 10:43:56;;;;;;;4.27;2.10;;;13.80;99.90;;;;;;5021905;28;20205;-74
2022/11/06 10:46:43;;;;;;;5.60;2.70;;;13.80;99.90;;;;;;5017451;28;20260;-75
2022/11/06 10:49:28;;;;;;;5.00;2.10;;;13.90;99.90;;;;;;5024879;28;20208;-74
2022/11/06 10:52:19;;;;;;;6.67;1.93;;;13.90;99.90;;;;;;5024496;28;20217;-74
2022/11/06 10:54:51;;;;;;;7.73;1.90;;;13.90;99.90;;;;;;5021157;28;20215;-74
2022/11/06 10:57:21;;;;;;;4.63;1.97;;;13.90;99.90;;;;;;5020142;28;20234;-75
2022/11/06 10:59:49;;;;;;;5.63;2.40;;;14.00;99.90;;;;;;5024091;28;20230;-74
2022/11/06 11:02:26;;;;;;;8.00;2.23;;;14.00;99.90;;;;;;5020090;28;20210;-74
2022/11/06 11:04:53;;;;;;;6.07;2.30;;;14.00;99.90;;;;;;5022453;28;20210;-74
2022/11/06 11:07:28;;;;;;;9.50;2.20;;;14.00;99.90;;;;;;5019548;28;20232;-73
2022/11/06 11:09:54;;;;;;;6.83;1.87;;;14.10;99.90;;;;;;5020778;28;20633;-74
2022/11/06 11:12:31;;;;;;;7.43;2.20;;;14.10;99.90;;;;;;5019166;28;20214;-73
2022/11/06 11:15:16;;;;;;;7.93;2.73;;;14.10;99.90;;;;;;5018584;28;20236;-75
2022/11/06 11:18:12;;;;;;;5.00;2.10;;;14.00;99.90;;;;;;5023066;28;20202;-74
2022/11/06 11:20:45;;;;;;;4.43;2.10;;;14.00;99.90;;;;;;5020600;28;20249;-76
2022/11/06 11:23:21;;;;;;;8.77;2.37;;;14.00;99.90;;;;;;5006071;28;20662;-74
2022/11/06 11:25:51;;;;;;;6.40;2.60;;;14.00;99.90;;;;;;5018361;28;20217;-74
2022/11/06 11:28:29;;;;;;;4.30;2.40;;;14.00;99.90;;;;;;5001462;28;20743;-74
2022/11/06 11:31:06;;;;;;;7.30;2.50;;;14.00;99.90;;;;;;5029148;28;20202;-73
2022/11/06 11:33:34;;;;;;;5.90;2.13;;;14.00;99.90;;;;;;5019416;28;20216;-74
2022/11/06 11:36:04;;;;;;;4.17;1.90;;;14.00;99.90;;;;;;5021106;28;20218;-74
2022/11/06 11:38:33;;;;;;;5.20;2.47;;;14.00;99.90;;;;;;5020526;28;20229;-73
2022/11/06 11:41:18;;;;;;;8.17;2.73;;;13.90;99.90;;;;;;5021864;28;20291;-74
2022/11/06 11:44:14;;;;;;;8.63;2.80;;;13.90;99.90;;;;;;5020938;28;20216;-73
2022/11/06 11:46:50;;;;;;;4.60;2.20;;;13.90;99.90;;;;;;5004958;28;20197;-74
2022/11/06 11:49:31;;;;;;;6.97;2.03;;;13.90;99.90;;;;;;5021492;28;20260;-74
2022/11/06 11:52:01;;;;;;;8.50;2.00;;;13.90;99.90;;;;;;5020562;28;20359;-74
2022/11/06 11:54:32;;;;;;;7.00;2.27;;;13.90;99.90;;;;;;5019291;28;20256;-74
2022/11/06 11:57:03;;;;;;;6.60;2.10;;;13.90;99.90;;;;;;5021351;28;20313;-73
2022/11/06 11:59:46;;;;;;;7.00;2.93;;;13.90;99.90;;;;;;5019272;28;20204;-75
2022/11/06 12:02:39;;;;;;;6.30;1.83;;;13.90;99.90;;;;;;5003267;28;20206;-75
2022/11/06 12:05:21;;;;;;;6.77;2.47;;;13.90;99.90;;;;;;5008040;28;20293;-74
2022/11/06 12:07:52;;;;;;;6.07;2.37;;;13.90;99.90;;;;;;5018366;28;20236;-75
2022/11/06 12:10:27;;;;;;;7.60;2.30;;;13.90;99.90;;;;;;5019675;28;20202;-75
2022/11/06 12:12:56;;;;;;;7.20;2.83;;;13.90;99.90;;;;;;5018998;28;20216;-74
2022/11/06 12:15:44;;;;;;;7.97;2.00;;;13.90;99.90;;;;;;5021913;28;20216;-75
2022/11/06 12:18:21;;;;;;;5.43;2.00;;;14.00;99.90;;;;;;5019346;28;20321;-75
2022/11/06 12:21:03;;;;;;;7.90;2.23;;;14.00;99.90;;;;;;5003634;28;20236;-74
2022/11/06 12:23:35;;;;;;;5.40;1.70;;;14.00;99.90;;;;;;5019191;28;20613;-75
2022/11/06 12:26:18;;;;;;;7.63;2.30;;;14.10;99.90;;;;;;5018672;28;20226;-76
2022/11/06 12:28:49;;;;;;;8.53;2.70;;;14.20;99.90;;;;;;5016442;28;20324;-74
2022/11/06 12:31:36;;;;;;;5.17;1.87;;;14.30;99.90;;;;;;5020919;28;20347;-74
2022/11/06 12:34:09;;;;;;;6.87;2.10;;;14.40;99.90;;;;;;5022223;28;20289;-75
2022/11/06 12:36:51;;;;;;;5.63;1.90;;;14.40;99.90;;;;;;5020917;28;20675;-75
2022/11/06 12:39:26;;;;;;;4.33;2.07;;;14.40;99.90;;;;;;5024328;28;20264;-75
2022/11/06 12:41:55;;;;;;;3.90;1.60;;;14.40;99.90;;;;;;5025116;28;20668;-74
2022/11/06 12:44:22;;;;;;;5.17;2.30;;;14.40;99.90;;;;;;5023744;28;20278;-74
2022/11/06 12:47:26;;;;;;;8.43;2.20;;;14.30;99.90;;;;;;5019560;28;20565;-74
2022/11/06 12:50:03;;;;;;;6.25;2.95;;;14.20;99.90;;;;;;5024132;28;20610;-75
2022/11/06 12:53:00;;;;;;;5.73;2.33;;;14.20;99.90;;;;;;5021696;28;20209;-75
2022/11/06 12:55:45;;;;;;;6.50;2.53;;;14.20;99.90;;;;;;5021105;28;20220;-76
2022/11/06 12:58:37;;;;;;;5.33;1.63;;;14.10;99.90;;;;;;5020869;28;20229;-75
2022/11/06 13:01:14;;;;;;;5.63;1.87;;;14.10;99.90;;;;;;5023206;28;20217;-75
2022/11/06 13:04:16;;;;;;;9.00;2.47;;;14.00;99.90;;;;;;5022989;28;20190;-74
2022/11/06 13:07:02;;;;;;;6.17;1.83;;;13.90;99.90;;;;;;5022647;28;20290;-76
2022/11/06 13:09:56;;;;;;;6.13;1.90;;;13.90;99.90;;;;;;5023677;28;20284;-74
2022/11/06 13:12:40;;;;;;;6.90;2.23;;;13.80;99.90;;;;;;5021371;28;20214;-75
2022/11/06 13:15:24;;;;;;;5.33;2.40;;;13.70;99.90;;;;;;5023396;28;20206;-75
2022/11/06 13:18:16;;;;;;;6.27;1.80;;;13.70;99.90;;;;;;5021199;28;20201;-75
2022/11/06 13:20:43;;;;;;;5.23;2.13;;;13.70;99.90;;;;;;5026205;28;20229;-74
2022/11/06 13:23:36;;;;;;;4.07;1.70;;;13.70;99.90;;;;;;5025529;28;20643;-74
2022/11/06 13:26:03;;;;;;;6.63;1.97;;;13.70;99.90;;;;;;5024326;28;20205;-74